Time;durP1;ratioP1;P1;durP2;ratioP2;P2;SDS_P1;SDS_P2;PMS_P1;PMS_P2;Temp;Humidity;BMP_temperature;BMP_pressure;BME280_temperature;BME280_humidity;BME280_pressure;Samples;Min_cycle;Max_cycle;Signal;HPM_P1;HPM_P2
2023/11/24 00:02:15;;;;;;;19.70;4.43;;;6.70;99.90;;;;;;4990576;28;20038;-70
2023/11/24 00:04:43;;;;;;;18.20;4.90;;;6.70;99.90;;;;;;5004191;28;20698;-71
2023/11/24 00:07:09;;;;;;;22.15;6.00;;;6.70;99.90;;;;;;5008969;28;20045;-71
2023/11/24 00:09:35;;;;;;;19.05;4.13;;;6.70;99.90;;;;;;4992576;28;20041;-70
2023/11/24 00:12:01;;;;;;;19.38;3.85;;;6.60;99.90;;;;;;4999091;28;20049;-71
2023/11/24 00:14:27;;;;;;;21.70;3.92;;;6.60;99.90;;;;;;5013534;28;20484;-70
2023/11/24 00:16:53;;;;;;;26.77;4.55;;;6.60;99.90;;;;;;5001245;28;20136;-70
2023/11/24 00:19:19;;;;;;;17.58;4.13;;;6.50;99.90;;;;;;5015060;28;20125;-71
2023/11/24 00:21:49;;;;;;;18.40;3.83;;;6.60;99.90;;;;;;4992613;28;20033;-70
2023/11/24 00:24:16;;;;;;;;;;;6.50;99.90;;;;;;5008869;28;20119;-71
2023/11/24 00:26:41;;;;;;;23.42;5.15;;;6.50;99.90;;;;;;5021940;28;20270;-70
2023/11/24 00:29:07;;;;;;;20.90;4.03;;;6.40;99.90;;;;;;5005632;28;20030;-70
2023/11/24 00:31:33;;;;;;;18.83;4.10;;;6.50;99.90;;;;;;5014478;28;20037;-70
2023/11/24 00:34:00;;;;;;;19.50;4.38;;;6.50;99.90;;;;;;5004106;28;20500;-71
2023/11/24 00:36:29;;;;;;;23.65;4.63;;;6.50;99.90;;;;;;5015667;28;20316;-71
2023/11/24 00:38:55;;;;;;;24.73;3.83;;;6.50;99.90;;;;;;5006353;28;20472;-70
2023/11/24 00:41:24;;;;;;;18.33;3.83;;;6.50;99.90;;;;;;5002539;28;20144;-70
2023/11/24 00:43:54;;;;;;;16.90;4.28;;;6.40;99.90;;;;;;4995362;28;20052;-70
2023/11/24 00:46:21;;;;;;;14.93;3.60;;;6.40;99.90;;;;;;4990387;28;20037;-71
2023/11/24 00:48:47;;;;;;;20.70;4.43;;;6.40;99.90;;;;;;5012134;28;20195;-71
2023/11/24 00:51:14;;;;;;;22.08;4.68;;;6.40;99.90;;;;;;5002848;28;20057;-70
2023/11/24 00:53:41;;;;;;;20.17;4.53;;;6.40;99.90;;;;;;4989000;28;20049;-71
2023/11/24 00:56:07;;;;;;;16.75;4.35;;;6.40;99.90;;;;;;4989833;28;20377;-70
2023/11/24 00:58:33;;;;;;;24.17;5.18;;;6.50;99.90;;;;;;5023896;28;20044;-70
2023/11/24 01:01:00;;;;;;;23.17;4.57;;;6.50;99.90;;;;;;5014750;28;20041;-71
2023/11/24 01:03:26;;;;;;;26.10;4.63;;;6.50;99.90;;;;;;5004634;28;20096;-70
2023/11/24 01:05:53;;;;;;;28.17;5.60;;;6.60;99.90;;;;;;5008355;28;20048;-71
2023/11/24 01:08:19;;;;;;;19.55;4.55;;;6.60;99.90;;;;;;4991086;28;20082;-71
2023/11/24 01:10:48;;;;;;;25.45;5.22;;;6.60;99.90;;;;;;5004189;28;20038;-71
2023/11/24 01:13:14;;;;;;;21.05;4.43;;;6.50;99.90;;;;;;5005590;28;20045;-71
2023/11/24 01:15:40;;;;;;;20.23;3.55;;;6.60;99.90;;;;;;5006546;28;20504;-71
2023/11/24 01:18:09;;;;;;;15.80;3.85;;;6.40;99.90;;;;;;4988014;28;20049;-76
2023/11/24 01:20:36;;;;;;;20.17;3.88;;;6.50;99.90;;;;;;5005477;28;20595;-77
2023/11/24 01:23:01;;;;;;;19.00;4.13;;;6.40;99.90;;;;;;5006701;28;20044;-77
2023/11/24 01:25:27;;;;;;;19.15;3.78;;;6.40;99.90;;;;;;5004668;28;20380;-77
2023/11/24 01:27:53;;;;;;;17.95;3.85;;;6.40;99.90;;;;;;4988452;28;20096;-76
2023/11/24 01:30:19;;;;;;;24.10;4.32;;;6.40;99.90;;;;;;4994991;28;20057;-71
2023/11/24 01:32:45;;;;;;;18.52;4.50;;;6.40;99.90;;;;;;5002517;28;20540;-71
2023/11/24 01:35:11;;;;;;;20.80;4.65;;;6.40;99.90;;;;;;4986548;28;20041;-71
2023/11/24 01:37:37;;;;;;;19.60;4.28;;;6.40;99.90;;;;;;5007941;28;20041;-71
2023/11/24 01:40:04;;;;;;;21.75;4.25;;;6.40;99.90;;;;;;5009047;28;20043;-76
2023/11/24 01:42:34;;;;;;;19.42;3.78;;;6.50;99.90;;;;;;4989002;28;20380;-71
2023/11/24 01:44:59;;;;;;;21.77;3.80;;;6.50;99.90;;;;;;5009157;28;20077;-71
2023/11/24 01:47:25;;;;;;;20.95;4.28;;;6.50;99.90;;;;;;4995070;28;20152;-71
2023/11/24 01:49:54;;;;;;;23.55;4.20;;;6.50;99.90;;;;;;5005464;28;20063;-71
2023/11/24 01:52:20;;;;;;;20.65;3.85;;;6.50;99.90;;;;;;4992283;28;20064;-71
2023/11/24 01:54:48;;;;;;;21.00;4.93;;;6.50;99.90;;;;;;5001519;28;20497;-71
2023/11/24 01:57:14;;;;;;;18.45;3.30;;;6.50;99.90;;;;;;4999726;28;20500;-71
2023/11/24 01:59:40;;;;;;;21.88;3.80;;;6.50;99.90;;;;;;4999393;28;20041;-71
2023/11/24 02:02:06;;;;;;;16.83;3.65;;;6.50;99.90;;;;;;4994934;28;20056;-71
2023/11/24 02:04:31;;;;;;;15.80;3.63;;;6.50;99.90;;;;;;5004217;28;20038;-71
2023/11/24 02:06:57;;;;;;;21.65;3.47;;;6.40;99.90;;;;;;5007030;28;20051;-71
2023/11/24 02:09:26;;;;;;;18.05;3.55;;;6.40;99.90;;;;;;5013485;28;20044;-70
2023/11/24 02:11:52;;;;;;;15.27;3.17;;;6.40;99.90;;;;;;5010836;28;20044;-76
2023/11/24 02:14:18;;;;;;;16.50;3.35;;;6.40;99.90;;;;;;5004250;28;20057;-76
2023/11/24 02:16:44;;;;;;;19.30;3.78;;;6.30;99.90;;;;;;5007559;28;20041;-76
2023/11/24 02:19:11;;;;;;;24.45;4.35;;;6.30;99.90;;;;;;4986073;28;20221;-71
2023/11/24 02:21:37;;;;;;;19.17;3.42;;;6.30;99.90;;;;;;4987095;28;20127;-71
2023/11/24 02:24:05;;;;;;;21.77;3.70;;;6.20;99.90;;;;;;5005299;28;20095;-71
2023/11/24 02:26:31;;;;;;;18.00;3.95;;;6.30;99.90;;;;;;4993340;28;20152;-70
2023/11/24 02:28:57;;;;;;;19.27;3.60;;;6.20;99.90;;;;;;4986635;28;20079;-71
2023/11/24 02:31:23;;;;;;;15.95;3.15;;;6.20;99.90;;;;;;4998861;28;20041;-71
2023/11/24 02:33:49;;;;;;;17.67;3.58;;;6.20;99.90;;;;;;4988588;28;20351;-71
2023/11/24 02:36:20;;;;;;;15.95;2.85;;;6.20;99.90;;;;;;5005774;28;20511;-70
2023/11/24 02:38:49;;;;;;;15.40;3.10;;;6.20;99.90;;;;;;5010026;28;20084;-70
2023/11/24 02:41:16;;;;;;;14.95;3.15;;;6.20;99.90;;;;;;4992932;28;20114;-70
2023/11/24 02:43:42;;;;;;;14.23;2.83;;;6.20;99.90;;;;;;4991767;28;20048;-70
2023/11/24 02:46:12;;;;;;;12.68;2.20;;;6.20;99.90;;;;;;5005988;28;20492;-71
2023/11/24 02:48:39;;;;;;;15.52;2.55;;;6.30;99.90;;;;;;4993662;28;20075;-71
2023/11/24 02:51:06;;;;;;;12.20;2.55;;;6.30;99.90;;;;;;5009071;28;20509;-70
2023/11/24 02:53:32;;;;;;;12.10;3.00;;;6.30;99.90;;;;;;5012282;28;20080;-70
2023/11/24 02:55:58;;;;;;;10.77;2.58;;;6.30;99.90;;;;;;5011266;28;20473;-70
2023/11/24 02:58:25;;;;;;;11.95;2.58;;;6.30;99.90;;;;;;5011205;28;20425;-70
2023/11/24 03:00:54;;;;;;;16.25;3.58;;;6.30;99.90;;;;;;5009591;28;20044;-70
2023/11/24 03:03:20;;;;;;;12.50;2.25;;;6.40;99.90;;;;;;5002499;28;20046;-71
2023/11/24 03:05:51;;;;;;;12.40;2.55;;;6.40;99.90;;;;;;5008789;28;20076;-76
2023/11/24 03:08:19;;;;;;;12.88;2.05;;;6.40;99.90;;;;;;4996144;28;20149;-75
2023/11/24 03:10:45;;;;;;;16.27;2.75;;;6.30;99.90;;;;;;4999779;28;20053;-75
2023/11/24 03:13:11;;;;;;;13.30;2.60;;;6.30;99.90;;;;;;5008264;28;20046;-69
2023/11/24 03:15:37;;;;;;;19.98;2.72;;;6.30;99.90;;;;;;5008114;28;20111;-70
2023/11/24 03:18:02;;;;;;;15.27;3.25;;;6.20;99.90;;;;;;4992793;28;20103;-70
2023/11/24 03:20:28;;;;;;;14.63;2.63;;;6.20;99.90;;;;;;4985362;28;20049;-70
2023/11/24 03:22:55;;;;;;;19.00;3.35;;;6.10;99.90;;;;;;5003250;28;20359;-70
2023/11/24 03:25:21;;;;;;;25.52;3.33;;;6.10;99.90;;;;;;4992128;28;20050;-75
2023/11/24 03:27:48;;;;;;;16.85;2.45;;;6.00;99.90;;;;;;5009971;28;20056;-76
2023/11/24 03:30:14;;;;;;;12.02;2.55;;;6.00;99.90;;;;;;5009785;28;20462;-76
2023/11/24 03:32:39;;;;;;;15.38;2.65;;;5.90;99.90;;;;;;5010205;28;20057;-75
2023/11/24 03:35:09;;;;;;;19.25;2.78;;;5.90;99.90;;;;;;5007800;28;20516;-75
2023/11/24 03:37:35;;;;;;;11.93;2.25;;;5.90;99.90;;;;;;5008116;28;20057;-75
2023/11/24 03:40:01;;;;;;;11.18;2.72;;;5.80;99.90;;;;;;4990115;28;20045;-75
2023/11/24 03:42:27;;;;;;;11.60;2.45;;;5.80;99.90;;;;;;5010563;28;20045;-75
2023/11/24 03:44:53;;;;;;;12.52;2.63;;;5.80;99.90;;;;;;5009352;28;20045;-74
2023/11/24 03:47:19;;;;;;;14.23;2.33;;;5.80;99.90;;;;;;5009426;28;20054;-75
2023/11/24 03:49:45;;;;;;;11.55;1.98;;;5.80;99.90;;;;;;4992944;28;20124;-75
2023/11/24 03:52:11;;;;;;;12.10;2.10;;;5.70;99.90;;;;;;5008638;28;20041;-75
2023/11/24 03:54:36;;;;;;;13.60;2.28;;;5.80;99.90;;;;;;5009990;28;20120;-75
2023/11/24 03:57:02;;;;;;;14.98;3.22;;;5.80;99.90;;;;;;4992217;28;20053;-75
2023/11/24 03:59:28;;;;;;;16.10;2.67;;;5.80;99.90;;;;;;4989865;28;20054;-76
2023/11/24 04:01:54;;;;;;;18.48;2.85;;;5.80;99.90;;;;;;4997949;28;20109;-76
2023/11/24 04:04:20;;;;;;;14.32;2.20;;;5.90;99.90;;;;;;5006916;28;20053;-76
2023/11/24 04:06:46;;;;;;;11.27;2.33;;;5.80;99.90;;;;;;4994725;28;20099;-76
2023/11/24 04:09:12;;;;;;;12.90;2.40;;;5.80;99.90;;;;;;5008795;28;20103;-71
2023/11/24 04:11:38;;;;;;;13.60;2.60;;;5.80;99.90;;;;;;5009840;28;20134;-70
2023/11/24 04:14:03;;;;;;;14.30;2.60;;;5.80;99.90;;;;;;4998145;28;20045;-71
2023/11/24 04:16:29;;;;;;;16.92;2.13;;;5.80;99.90;;;;;;5004309;28;20038;-71
2023/11/24 04:18:56;;;;;;;17.02;2.83;;;5.70;99.90;;;;;;5006356;28;20132;-71
2023/11/24 04:21:24;;;;;;;13.95;2.45;;;5.60;99.90;;;;;;5009818;28;20107;-70
2023/11/24 04:23:51;;;;;;;11.32;2.30;;;5.60;99.90;;;;;;4982175;28;20053;-71
2023/11/24 04:26:19;;;;;;;13.77;2.53;;;5.50;99.90;;;;;;4986151;28;20053;-71
2023/11/24 04:28:45;;;;;;;12.27;2.47;;;5.50;99.90;;;;;;4987683;28;20042;-71
2023/11/24 04:31:11;;;;;;;9.32;2.20;;;5.50;99.90;;;;;;4991260;28;20128;-71
2023/11/24 04:33:37;;;;;;;17.27;2.90;;;5.40;99.90;;;;;;4989437;28;20372;-71
2023/11/24 04:36:02;;;;;;;14.68;3.08;;;5.40;99.90;;;;;;5001359;28;20042;-70
2023/11/24 04:38:29;;;;;;;11.73;2.45;;;5.40;99.90;;;;;;4993383;28;20111;-75
2023/11/24 04:40:55;;;;;;;15.18;2.65;;;5.40;99.90;;;;;;4989190;28;20053;-75
2023/11/24 04:43:24;;;;;;;11.98;2.03;;;5.40;99.90;;;;;;4992118;28;20041;-75
2023/11/24 04:45:50;;;;;;;16.60;2.72;;;5.50;99.90;;;;;;4986539;28;20350;-75
2023/11/24 04:48:16;;;;;;;11.65;1.90;;;5.50;99.90;;;;;;4992282;28;20188;-71
2023/11/24 04:50:45;;;;;;;9.50;1.83;;;5.50;99.90;;;;;;5004193;28;20544;-71
2023/11/24 04:53:11;;;;;;;8.82;1.80;;;5.50;99.90;;;;;;4995814;28;20052;-71
2023/11/24 04:55:37;;;;;;;9.07;1.67;;;5.50;99.90;;;;;;4996768;28;20412;-71
2023/11/24 04:58:03;;;;;;;10.13;1.70;;;5.50;99.90;;;;;;4986612;28;20053;-71
2023/11/24 05:00:28;;;;;;;9.00;1.70;;;5.50;99.90;;;;;;4990390;28;20127;-71
2023/11/24 05:02:54;;;;;;;8.80;1.60;;;5.40;99.90;;;;;;4999504;28;20443;-71
2023/11/24 05:05:20;;;;;;;11.02;1.83;;;5.40;99.90;;;;;;4990591;28;20049;-71
2023/11/24 05:07:46;;;;;;;12.48;1.52;;;5.40;99.90;;;;;;5007499;28;20042;-71
2023/11/24 05:10:12;;;;;;;12.18;1.73;;;5.40;99.90;;;;;;5010379;28;20405;-71
2023/11/24 05:12:38;;;;;;;12.85;1.80;;;5.30;99.90;;;;;;5005557;28;20132;-71
2023/11/24 05:15:08;;;;;;;9.05;1.95;;;5.30;99.90;;;;;;4997608;28;20058;-71
2023/11/24 05:17:38;;;;;;;15.40;2.23;;;5.30;99.90;;;;;;4993877;28;20085;-71
2023/11/24 05:20:06;;;;;;;8.90;1.92;;;5.40;99.90;;;;;;5000942;28;20105;-71
2023/11/24 05:22:32;;;;;;;18.90;2.40;;;5.20;99.90;;;;;;4996365;28;20069;-71
2023/11/24 05:25:03;;;;;;;15.52;2.35;;;5.20;99.90;;;;;;4986684;28;20049;-71
2023/11/24 05:27:31;;;;;;;12.85;1.85;;;5.20;99.90;;;;;;4979801;28;20281;-71
2023/11/24 05:29:58;;;;;;;14.95;2.22;;;5.20;99.90;;;;;;5004183;28;20072;-71
2023/11/24 05:32:24;;;;;;;10.73;2.05;;;5.10;99.90;;;;;;5008743;28;20064;-71
2023/11/24 05:34:51;;;;;;;13.80;2.20;;;5.10;99.90;;;;;;5009906;28;20057;-71
2023/11/24 05:37:17;;;;;;;12.90;1.95;;;5.20;99.90;;;;;;5008545;28;20038;-72
2023/11/24 05:39:43;;;;;;;15.73;2.50;;;5.10;99.90;;;;;;5008763;28;20049;-71
2023/11/24 05:42:09;;;;;;;17.73;2.80;;;5.10;99.90;;;;;;4991251;28;20658;-72
2023/11/24 05:44:34;;;;;;;14.35;2.35;;;5.10;99.90;;;;;;4989509;28;20045;-72
2023/11/24 05:47:04;;;;;;;12.05;1.88;;;5.20;99.90;;;;;;4994252;28;20411;-71
2023/11/24 05:49:33;;;;;;;8.10;1.50;;;5.20;99.90;;;;;;4989755;28;20072;-72
2023/11/24 05:51:59;;;;;;;11.50;2.00;;;5.20;99.90;;;;;;5009786;28;20288;-71
2023/11/24 05:54:25;;;;;;;8.23;1.65;;;5.20;99.90;;;;;;4999844;28;20412;-71
2023/11/24 05:56:51;;;;;;;14.20;2.00;;;5.20;99.90;;;;;;5009115;28;20502;-71
2023/11/24 05:59:19;;;;;;;11.20;1.80;;;5.20;99.90;;;;;;4986621;28;20056;-72
2023/11/24 06:01:46;;;;;;;10.82;1.50;;;5.20;99.90;;;;;;5000119;28;20042;-71
2023/11/24 06:04:12;;;;;;;8.32;1.60;;;5.10;99.90;;;;;;4990300;28;20209;-72
2023/11/24 06:06:38;;;;;;;11.63;1.75;;;5.10;99.90;;;;;;5003207;28;20060;-71
2023/11/24 06:09:04;;;;;;;11.15;1.70;;;5.10;99.90;;;;;;4991721;28;20041;-71
2023/11/24 06:11:29;;;;;;;8.32;1.85;;;5.10;99.90;;;;;;4993432;28;20486;-71
2023/11/24 06:13:55;;;;;;;12.57;1.80;;;5.10;99.90;;;;;;5004260;28;20187;-72
2023/11/24 06:16:21;;;;;;;8.82;1.55;;;5.20;99.90;;;;;;5013947;28;20481;-72
2023/11/24 06:18:49;;;;;;;11.13;1.67;;;5.20;99.90;;;;;;4991934;28;20570;-72
2023/11/24 06:21:16;;;;;;;9.35;1.88;;;5.20;99.90;;;;;;4998002;28;20120;-72
2023/11/24 06:23:45;;;;;;;7.80;1.45;;;5.20;99.90;;;;;;5009954;28;20058;-72
2023/11/24 06:26:11;;;;;;;7.90;1.40;;;5.20;99.90;;;;;;5010058;28;20104;-72
2023/11/24 06:28:37;;;;;;;9.35;1.65;;;5.20;99.90;;;;;;5005122;28;20691;-72
2023/11/24 06:31:04;;;;;;;10.85;1.45;;;5.20;99.90;;;;;;5013990;28;20472;-72
2023/11/24 06:33:30;;;;;;;8.23;1.50;;;5.20;99.90;;;;;;4996060;28;20537;-76
2023/11/24 06:35:56;;;;;;;8.07;1.40;;;5.20;99.90;;;;;;4994341;28;20042;-77
2023/11/24 06:38:25;;;;;;;9.27;1.65;;;5.20;99.90;;;;;;4982455;28;20152;-76
2023/11/24 06:40:51;;;;;;;9.13;1.75;;;5.30;99.90;;;;;;4998982;28;20106;-77
2023/11/24 06:43:17;;;;;;;7.68;1.65;;;5.20;99.90;;;;;;5012464;28;20128;-77
2023/11/24 06:45:46;;;;;;;8.97;1.20;;;5.20;99.90;;;;;;5003396;28;20053;-78
2023/11/24 06:48:11;;;;;;;11.20;1.98;;;5.10;99.90;;;;;;5001655;28;20456;-78
2023/11/24 06:50:37;;;;;;;10.38;1.92;;;5.10;99.90;;;;;;5006805;28;20492;-77
2023/11/24 06:53:03;;;;;;;12.70;2.20;;;5.10;99.90;;;;;;5007634;28;20408;-77
2023/11/24 06:55:35;;;;;;;11.73;2.13;;;5.00;99.90;;;;;;5010849;28;20459;-77
2023/11/24 06:58:01;;;;;;;11.55;2.08;;;5.00;99.90;;;;;;5028362;28;20553;-77
2023/11/24 07:00:27;;;;;;;12.82;2.10;;;5.00;99.90;;;;;;4989480;28;20077;-77
2023/11/24 07:02:52;;;;;;;15.65;2.30;;;5.00;99.90;;;;;;4990447;28;20046;-77
2023/11/24 07:05:18;;;;;;;17.20;2.58;;;5.00;99.90;;;;;;5012907;28;20145;-77
2023/11/24 07:07:44;;;;;;;14.10;2.70;;;5.00;99.90;;;;;;5000324;28;20044;-77
2023/11/24 07:10:13;;;;;;;15.75;2.60;;;4.90;99.90;;;;;;5014423;28;20049;-78
2023/11/24 07:12:42;;;;;;;14.10;2.60;;;5.00;99.90;;;;;;4992928;28;20092;-78
2023/11/24 07:15:08;;;;;;;13.90;2.70;;;5.00;99.90;;;;;;4991564;28;20088;-73
2023/11/24 07:17:35;;;;;;;11.68;2.47;;;4.90;99.90;;;;;;5014708;28;20595;-73
2023/11/24 07:20:11;;;;;;;18.45;5.28;;;4.90;99.90;;;;;;4996614;28;20053;-73
2023/11/24 07:22:37;;;;;;;14.80;4.00;;;4.90;99.90;;;;;;4995330;28;20046;-73
2023/11/24 07:25:06;;;;;;;16.70;4.80;;;4.90;99.90;;;;;;5009518;28;20042;-73
2023/11/24 07:27:32;;;;;;;14.95;3.50;;;4.90;99.90;;;;;;4989766;28;20038;-73
2023/11/24 07:29:58;;;;;;;15.65;2.72;;;4.90;99.90;;;;;;5007142;28;20461;-72
2023/11/24 07:32:28;;;;;;;16.88;2.40;;;4.90;99.90;;;;;;4992114;28;20069;-72
2023/11/24 07:34:54;;;;;;;21.02;3.35;;;4.90;99.90;;;;;;5010832;28;20056;-73
2023/11/24 07:37:20;;;;;;;13.48;2.53;;;4.80;99.90;;;;;;5001998;28;20049;-69
2023/11/24 07:39:46;;;;;;;13.48;2.63;;;4.80;99.90;;;;;;5010200;28;20076;-73
2023/11/24 07:42:12;;;;;;;17.65;3.28;;;4.90;99.90;;;;;;4982645;28;20080;-73
2023/11/24 07:44:38;;;;;;;17.05;2.75;;;4.80;99.90;;;;;;4995430;28;20117;-73
2023/11/24 07:47:05;;;;;;;12.52;2.30;;;4.80;99.90;;;;;;5009803;28;20124;-73
2023/11/24 07:49:31;;;;;;;15.40;2.50;;;4.80;99.90;;;;;;5010700;28;20042;-72
2023/11/24 07:51:57;;;;;;;13.93;2.35;;;4.80;99.90;;;;;;4985902;28;20081;-73
2023/11/24 07:54:23;;;;;;;10.88;2.35;;;4.80;99.90;;;;;;5004803;28;20049;-72
2023/11/24 07:56:49;;;;;;;14.70;2.53;;;4.70;99.90;;;;;;5001546;28;20451;-73
2023/11/24 07:59:15;;;;;;;16.17;3.13;;;4.70;99.90;;;;;;5001952;28;20054;-72
2023/11/24 08:01:41;;;;;;;12.75;2.88;;;4.70;99.90;;;;;;5008050;28;20077;-72
2023/11/24 08:04:08;;;;;;;15.73;2.35;;;4.70;99.90;;;;;;4997439;28;20496;-72
2023/11/24 08:06:34;;;;;;;13.65;2.38;;;4.60;99.90;;;;;;5007117;28;20044;-72
2023/11/24 08:09:04;;;;;;;15.23;2.13;;;4.70;99.90;;;;;;4999111;28;20448;-72
2023/11/24 08:11:33;;;;;;;;;;;4.80;99.90;;;;;;5008294;28;20065;-72
2023/11/24 08:13:59;;;;;;;17.15;3.38;;;4.70;99.90;;;;;;5000455;28;19979;-73
2023/11/24 08:16:25;;;;;;;14.75;2.88;;;4.70;99.90;;;;;;4992566;28;20785;-72
2023/11/24 08:18:55;;;;;;;16.15;3.08;;;4.70;99.90;;;;;;5007052;28;20106;-72
2023/11/24 08:21:20;;;;;;;16.45;3.50;;;4.70;99.90;;;;;;4989931;28;20034;-72
2023/11/24 08:23:47;;;;;;;16.02;3.65;;;4.70;99.90;;;;;;5005258;28;20565;-73
2023/11/24 08:26:17;;;;;;;21.20;3.28;;;4.70;99.90;;;;;;5012988;28;20068;-72
2023/11/24 08:28:44;;;;;;;;;;;4.70;99.90;;;;;;5009018;28;20049;-72
2023/11/24 08:31:19;;;;;;;16.70;3.20;;;4.70;99.90;;;;;;4988751;28;19925;-72
2023/11/24 08:33:45;;;;;;;20.13;3.38;;;4.70;99.90;;;;;;5006495;28;20051;-72
2023/11/24 08:36:15;;;;;;;16.75;3.03;;;4.70;99.90;;;;;;4991470;28;20323;-72
2023/11/24 08:38:41;;;;;;;16.70;3.33;;;4.80;99.90;;;;;;5005471;28;20072;-72
2023/11/24 08:41:16;;;;;;;16.52;3.40;;;4.80;99.90;;;;;;5007899;28;20072;-72
2023/11/24 08:43:43;;;;;;;19.88;3.72;;;4.70;99.90;;;;;;5002168;28;20132;-72
2023/11/24 08:46:09;;;;;;;13.35;2.75;;;4.80;99.90;;;;;;4994362;28;20119;-72
2023/11/24 08:48:39;;;;;;;15.75;3.50;;;4.80;99.90;;;;;;5005466;28;20042;-71
2023/11/24 08:51:08;;;;;;;13.20;3.15;;;4.90;99.90;;;;;;5007151;28;20108;-72
2023/11/24 08:53:34;;;;;;;17.15;2.90;;;5.00;99.90;;;;;;5003775;28;20496;-72
2023/11/24 08:56:03;;;;;;;12.32;3.13;;;4.90;99.90;;;;;;5005231;28;20041;-73
2023/11/24 08:58:30;;;;;;;11.38;2.53;;;4.90;99.90;;;;;;4993219;28;20057;-72
2023/11/24 09:00:55;;;;;;;17.63;2.78;;;4.90;99.90;;;;;;4985993;28;20137;-72
2023/11/24 09:03:24;;;;;;;14.10;2.63;;;4.90;99.90;;;;;;5002820;28;20132;-72
2023/11/24 09:05:57;;;;;;;14.27;2.70;;;4.90;99.90;;;;;;5010708;28;20048;-72
2023/11/24 09:08:23;;;;;;;13.88;2.63;;;5.00;99.90;;;;;;4995139;28;20045;-72
2023/11/24 09:10:49;;;;;;;11.52;2.58;;;5.00;99.90;;;;;;4992110;28;20128;-72
2023/11/24 09:13:15;;;;;;;16.75;3.00;;;5.10;99.90;;;;;;4992810;28;20136;-72
2023/11/24 09:15:42;;;;;;;13.40;2.55;;;5.10;99.90;;;;;;4987174;28;20423;-72
2023/11/24 09:18:08;;;;;;;22.60;3.30;;;5.20;99.90;;;;;;5003454;28;20051;-72
2023/11/24 09:20:34;;;;;;;14.90;2.88;;;5.20;99.90;;;;;;5005300;28;20064;-72
2023/11/24 09:23:00;;;;;;;11.15;2.20;;;5.30;99.90;;;;;;5006264;28;20084;-72
2023/11/24 09:25:26;;;;;;;16.00;3.20;;;5.40;99.90;;;;;;4992905;28;20147;-72
2023/11/24 09:27:52;;;;;;;13.43;2.83;;;5.30;99.90;;;;;;4993172;28;20024;-72
2023/11/24 09:30:18;;;;;;;16.67;3.03;;;5.30;99.90;;;;;;4989015;28;20037;-72
2023/11/24 09:32:49;;;;;;;20.42;3.67;;;5.30;99.90;;;;;;5012449;28;20574;-72
2023/11/24 09:35:15;;;;;;;17.88;3.40;;;5.30;99.90;;;;;;4989888;28;20045;-72
2023/11/24 09:37:41;;;;;;;13.95;2.92;;;5.30;99.90;;;;;;5005993;28;20228;-72
2023/11/24 09:40:13;;;;;;;19.85;3.30;;;5.30;99.90;;;;;;5005126;28;20496;-72
2023/11/24 09:42:42;;;;;;;20.55;3.53;;;5.40;99.90;;;;;;5005589;28;20049;-71
2023/11/24 09:45:15;;;;;;;16.30;4.00;;;5.40;99.90;;;;;;5003998;28;20060;-72
2023/11/24 09:47:51;;;;;;;17.10;3.17;;;5.50;99.90;;;;;;5004462;28;20049;-72
2023/11/24 09:50:23;;;;;;;15.77;3.92;;;5.60;99.90;;;;;;4987427;28;20092;-72
2023/11/24 09:52:49;;;;;;;17.15;3.17;;;5.60;99.90;;;;;;5009939;28;20129;-72
2023/11/24 09:55:17;;;;;;;16.77;3.08;;;5.70;99.90;;;;;;4989417;28;20048;-72
2023/11/24 09:57:43;;;;;;;16.30;3.50;;;5.70;99.90;;;;;;4992515;28;20042;-71
2023/11/24 10:00:10;;;;;;;14.38;2.80;;;5.80;99.90;;;;;;4990557;28;20049;-71
2023/11/24 10:02:39;;;;;;;19.65;3.42;;;5.90;99.90;;;;;;4989588;28;20393;-72
2023/11/24 10:05:06;;;;;;;19.60;3.70;;;6.00;99.90;;;;;;5014693;28;20105;-71
2023/11/24 10:07:34;;;;;;;19.58;4.03;;;6.00;99.90;;;;;;4986221;28;20034;-72
2023/11/24 10:10:01;;;;;;;20.17;4.22;;;6.00;99.90;;;;;;5006495;28;20416;-72
2023/11/24 10:12:29;;;;;;;18.92;3.83;;;6.00;99.90;;;;;;5006107;28;20041;-72
2023/11/24 10:14:56;;;;;;;14.77;3.45;;;6.00;99.90;;;;;;4992100;28;20107;-72
2023/11/24 10:17:23;;;;;;;15.02;3.25;;;6.00;99.90;;;;;;4988146;28;20056;-71
2023/11/24 10:19:50;;;;;;;12.98;3.55;;;6.00;99.90;;;;;;5007595;28;20175;-72
2023/11/24 10:22:19;;;;;;;13.00;3.10;;;6.00;99.90;;;;;;5003763;28;20397;-72
2023/11/24 10:24:48;;;;;;;12.18;2.88;;;6.00;99.90;;;;;;4992029;28;20040;-71
2023/11/24 10:27:22;;;;;;;12.50;2.90;;;5.90;99.90;;;;;;5001584;28;20069;-71
2023/11/24 10:29:49;;;;;;;15.75;3.58;;;5.90;99.90;;;;;;5003189;28;20103;-72
2023/11/24 10:32:19;;;;;;;19.70;4.22;;;5.90;99.90;;;;;;5009356;28;20144;-72
2023/11/24 10:34:48;;;;;;;14.80;4.07;;;5.90;99.90;;;;;;5012491;28;20320;-73
2023/11/24 10:37:20;;;;;;;18.77;3.80;;;5.90;99.90;;;;;;4992434;28;20817;-72
2023/11/24 10:39:48;;;;;;;17.08;4.20;;;6.00;99.90;;;;;;4993188;28;20368;-71
2023/11/24 10:42:19;;;;;;;20.63;4.55;;;6.00;99.90;;;;;;5001674;28;20620;-71
2023/11/24 10:45:04;;;;;;;18.83;4.45;;;6.00;99.90;;;;;;5008340;28;20049;-71
2023/11/24 10:47:36;;;;;;;17.13;5.35;;;6.00;99.90;;;;;;5010811;28;20045;-71
2023/11/24 10:50:19;;;;;;;22.23;5.50;;;5.90;99.90;;;;;;4999240;28;20033;-71
2023/11/24 10:53:10;;;;;;;18.15;4.75;;;5.90;99.90;;;;;;5001841;28;20080;-71
2023/11/24 10:55:38;;;;;;;17.85;3.67;;;5.90;99.90;;;;;;5006754;28;20045;-71
2023/11/24 10:58:05;;;;;;;15.60;3.35;;;5.80;99.90;;;;;;4984861;28;20132;-71
2023/11/24 11:00:31;;;;;;;18.10;3.60;;;5.80;99.90;;;;;;5008936;28;20038;-72
2023/11/24 11:02:57;;;;;;;16.85;3.67;;;5.90;99.90;;;;;;5016137;28;20313;-71
2023/11/24 11:05:52;;;;;;;16.40;3.40;;;5.90;99.90;;;;;;5006053;28;20044;-72
2023/11/24 11:08:34;;;;;;;13.05;3.40;;;6.00;99.90;;;;;;4990821;28;20041;-72
2023/11/24 11:11:11;;;;;;;18.92;3.92;;;6.20;99.90;;;;;;5005089;28;20079;-72
2023/11/24 11:13:40;;;;;;;17.13;3.60;;;6.30;99.90;;;;;;5005020;28;20529;-72
2023/11/24 11:16:12;;;;;;;13.77;3.42;;;6.30;99.90;;;;;;4994854;28;20045;-72
2023/11/24 11:18:39;;;;;;;12.43;2.85;;;6.30;99.90;;;;;;4991738;28;20107;-71
2023/11/24 11:21:41;;;;;;;13.88;2.63;;;6.40;99.90;;;;;;4992771;28;20077;-72
2023/11/24 11:24:21;;;;;;;12.43;2.15;;;6.40;99.90;;;;;;4995966;28;20054;-71
2023/11/24 11:26:51;;;;;;;12.00;2.67;;;6.40;99.90;;;;;;4989372;28;20116;-71
2023/11/24 11:29:23;;;;;;;9.77;2.35;;;6.40;99.90;;;;;;4990662;28;20045;-71
2023/11/24 11:31:50;;;;;;;9.95;2.63;;;6.40;99.90;;;;;;4992173;28;20422;-72
2023/11/24 11:34:17;;;;;;;12.18;2.90;;;6.40;99.90;;;;;;5010354;28;20085;-71
2023/11/24 11:37:11;;;;;;;9.90;2.70;;;6.40;99.90;;;;;;4993282;28;20048;-71
2023/11/24 11:39:38;;;;;;;11.75;2.53;;;6.40;99.90;;;;;;4991084;28;20461;-71
2023/11/24 11:42:05;;;;;;;10.80;2.50;;;6.50;99.90;;;;;;5010675;28;20068;-70
2023/11/24 11:44:34;;;;;;;13.07;2.40;;;6.50;99.90;;;;;;4993405;28;20132;-70
2023/11/24 11:47:10;;;;;;;13.65;2.90;;;6.40;99.90;;;;;;5015902;28;20037;-77
2023/11/24 11:49:40;;;;;;;12.85;3.17;;;6.40;99.90;;;;;;5001311;28;20050;-78
2023/11/24 11:52:06;;;;;;;17.88;3.20;;;6.40;99.90;;;;;;5010635;28;20045;-78
2023/11/24 11:54:37;;;;;;;15.32;3.10;;;6.30;99.90;;;;;;5007991;28;20515;-78
2023/11/24 11:57:03;;;;;;;15.93;3.33;;;6.30;99.90;;;;;;5004559;28;20077;-78
2023/11/24 11:59:29;;;;;;;14.88;3.00;;;6.30;99.90;;;;;;5011844;28;20048;-78
2023/11/24 12:01:55;;;;;;;13.00;3.03;;;6.30;99.90;;;;;;5004836;28;20049;-76
2023/11/24 12:04:21;;;;;;;15.27;2.97;;;6.50;99.90;;;;;;5002714;28;20049;-79
2023/11/24 12:06:51;;;;;;;16.27;3.25;;;6.40;99.90;;;;;;5001035;28;20382;-79
2023/11/24 12:09:20;;;;;;;15.30;4.22;;;6.40;99.90;;;;;;5001318;28;20132;-79
2023/11/24 12:11:46;;;;;;;14.82;3.67;;;6.50;99.90;;;;;;5005954;28;20049;-72
2023/11/24 12:14:15;;;;;;;15.27;3.35;;;6.50;99.90;;;;;;4990189;28;20523;-71
2023/11/24 12:16:41;;;;;;;14.35;2.90;;;6.50;99.90;;;;;;4991060;28;20095;-71
2023/11/24 12:19:08;;;;;;;15.48;4.05;;;6.60;99.90;;;;;;4997142;28;20531;-71
2023/11/24 12:21:36;;;;;;;12.20;2.72;;;6.70;99.90;;;;;;4996851;28;20052;-70
2023/11/24 12:24:04;;;;;;;13.55;3.38;;;6.90;99.90;;;;;;4990260;28;20054;-71
2023/11/24 12:26:35;;;;;;;11.45;3.75;;;7.00;99.90;;;;;;4986517;28;20489;-71
2023/11/24 12:29:01;;;;;;;10.88;2.55;;;7.10;99.90;;;;;;4990301;28;20055;-71
2023/11/24 12:31:28;;;;;;;13.10;2.58;;;7.20;99.90;;;;;;4981552;28;20045;-71
2023/11/24 12:33:53;;;;;;;9.88;1.95;;;7.00;99.90;;;;;;5004092;28;20472;-72
2023/11/24 12:36:19;;;;;;;12.40;2.45;;;6.60;99.90;;;;;;4987868;28;20072;-72
2023/11/24 12:38:45;;;;;;;14.35;2.88;;;6.20;99.90;;;;;;4993394;28;20102;-72
2023/11/24 12:41:11;;;;;;;12.98;2.33;;;5.90;99.90;;;;;;4999517;28;20081;-72
2023/11/24 12:43:37;;;;;;;15.48;2.53;;;5.60;99.90;;;;;;5001520;28;20080;-72
2023/11/24 12:46:03;;;;;;;15.55;2.80;;;5.40;99.90;;;;;;5003672;28;20509;-71
2023/11/24 12:48:34;;;;;;;12.32;2.47;;;5.30;99.90;;;;;;5005001;28;20125;-71
2023/11/24 12:51:00;;;;;;;14.80;3.13;;;5.20;99.90;;;;;;4989519;28;20048;-72